nws-alerts: Checking more than four warning/county codes can delay the loading of your pages. You should use a cron job to get the data.
EllijayWeather Station Historical Data
Daily Summary for September 8, 2018 Units:  English    Metric   Both
Daily Weekly Monthly Yearly Custom
  High: Low: Average:
Temperature: 84.6 °F 66.2 °F 73.9 °F
Dew Point: 76.3 °F 64.8 °F 70.3 °F
Humidity: 95% 67% 89%
Wind Speed: 2.9mph 0mph 0mph
Wind Gust: 4mph - -
Wind- - South
Pressure: 30.07 in 29.88 in -
Precipitation: 0 in    
Historical Graphs
 
 
Tabular Data for September 8, 2018
Time Temperature Dew Point Pressure Wind Wind Speed Wind Gust Humidity Rainfall Rate (Hourly) solar
00:04 69.3 °F 67.5 °F 30.06 in Calm     94% 0 in meteobridge W/m2
00:09 69.1 °F 67.3 °F 30.06 in Calm     94% 0 in meteobridge W/m2
00:14 69.1 °F 67.3 °F 30.06 in Calm     94% 0 in meteobridge W/m2
00:19 69.1 °F 67.3 °F 30.06 in Calm     94% 0 in meteobridge W/m2
00:24 69.1 °F 67.3 °F 30.06 in Calm     94% 0 in meteobridge W/m2
00:29 68.9 °F 67.1 °F 30.06 in Calm     94% 0 in meteobridge W/m2
00:34 68.9 °F 67.1 °F 30.07 in Calm     94% 0 in meteobridge W/m2
00:39 68.7 °F 67.3 °F 30.07 in Calm     95% 0 in meteobridge W/m2
00:44 68.7 °F 67.3 °F 30.07 in Calm     95% 0 in meteobridge W/m2
00:49 68.7 °F 67.3 °F 30.07 in Calm     95% 0 in meteobridge W/m2
00:54 68.7 °F 66.9 °F 30.06 in Calm     94% 0 in meteobridge W/m2
00:59 68.7 °F 66.9 °F 30.06 in Calm     94% 0 in meteobridge W/m2
01:04 68.7 °F 66.9 °F 30.06 in Calm     94% 0 in meteobridge W/m2
01:09 68.7 °F 66.9 °F 30.06 in Calm     94% 0 in meteobridge W/m2
01:14 68.5 °F 66.7 °F 30.06 in Calm     94% 0 in meteobridge W/m2
01:19 68.5 °F 66.7 °F 30.06 in Calm     94% 0 in meteobridge W/m2
01:24 68.5 °F 66.7 °F 30.06 in Calm     94% 0 in meteobridge W/m2
01:29 68.5 °F 66.7 °F 30.06 in Calm     94% 0 in meteobridge W/m2
01:34 68.4 °F 66.6 °F 30.06 in Calm     94% 0 in meteobridge W/m2
01:39 68.4 °F 66.6 °F 30.06 in Calm     94% 0 in meteobridge W/m2
01:44 68.4 °F 66.9 °F 30.05 in Calm     95% 0 in meteobridge W/m2
01:49 68.4 °F 66.9 °F 30.05 in Calm     95% 0 in meteobridge W/m2
01:54 68.4 °F 66.9 °F 30.05 in Calm     95% 0 in meteobridge W/m2
01:59 68.2 °F 66.7 °F 30.05 in Calm     95% 0 in meteobridge W/m2
02:04 68.2 °F 66.7 °F 30.05 in Calm     95% 0 in meteobridge W/m2
02:09 68.2 °F 66.7 °F 30.05 in Calm     95% 0 in meteobridge W/m2
02:14 68 °F 66.6 °F 30.04 in Calm     95% 0 in meteobridge W/m2
02:19 68 °F 66.2 °F 30.04 in Calm     94% 0 in meteobridge W/m2
02:24 68 °F 66.2 °F 30.04 in Calm     94% 0 in meteobridge W/m2
02:29 68 °F 66.2 °F 30.03 in Calm     94% 0 in meteobridge W/m2
02:34 67.8 °F 66.4 °F 30.03 in Calm     95% 0 in meteobridge W/m2
02:39 67.8 °F 66.4 °F 30.03 in Calm     95% 0 in meteobridge W/m2
02:44 67.8 °F 66.4 °F 30.03 in Calm     95% 0 in meteobridge W/m2
02:49 67.8 °F 66.4 °F 30.02 in Calm     95% 0 in meteobridge W/m2
02:54 67.8 °F 66.4 °F 30.03 in Calm     95% 0 in meteobridge W/m2
02:59 67.6 °F 66.2 °F 30.02 in Calm     95% 0 in meteobridge W/m2
03:04 67.6 °F 66.2 °F 30.02 in Calm     95% 0 in meteobridge W/m2
03:09 67.6 °F 66.2 °F 30.02 in Calm     95% 0 in meteobridge W/m2
03:14 67.6 °F 66.2 °F 30.02 in Calm     95% 0 in meteobridge W/m2
03:19 67.6 °F 66.2 °F 30.01 in Calm     95% 0 in meteobridge W/m2
03:24 67.6 °F 66.2 °F 30.01 in Calm     95% 0 in meteobridge W/m2
03:29 67.5 °F 66 °F 30.01 in Calm     95% 0 in meteobridge W/m2
03:34 67.5 °F 66 °F 30.01 in Calm     95% 0 in meteobridge W/m2
03:39 67.5 °F 66 °F 30.01 in Calm     95% 0 in meteobridge W/m2
03:44 67.5 °F 66 °F 30.01 in Calm     95% 0 in meteobridge W/m2
03:49 67.3 °F 65.8 °F 30.01 in Calm     95% 0 in meteobridge W/m2
03:54 67.3 °F 65.8 °F 30.01 in Calm     95% 0 in meteobridge W/m2
03:59 67.5 °F 66 °F 30.01 in Calm     95% 0 in meteobridge W/m2
04:04 67.5 °F 66 °F 30.00 in Calm     95% 0 in meteobridge W/m2
04:09 67.5 °F 66 °F 30.01 in Calm     95% 0 in meteobridge W/m2
04:14 67.5 °F 66 °F 30.01 in Calm     95% 0 in meteobridge W/m2
04:19 67.3 °F 65.8 °F 30.01 in Calm     95% 0 in meteobridge W/m2
04:24 67.3 °F 65.8 °F 30.00 in Calm     95% 0 in meteobridge W/m2
04:29 67.3 °F 65.8 °F 30.00 in Calm     95% 0 in meteobridge W/m2
04:34 67.3 °F 65.8 °F 30.00 in Calm     95% 0 in meteobridge W/m2
04:39 67.3 °F 65.8 °F 30.00 in Calm     95% 0 in meteobridge W/m2
04:44 67.3 °F 65.8 °F 30.00 in Calm     95% 0 in meteobridge W/m2
04:49 67.3 °F 65.8 °F 30.01 in Calm     95% 0 in meteobridge W/m2
04:54 67.3 °F 65.8 °F 30.00 in Calm     95% 0 in meteobridge W/m2
04:59 67.3 °F 65.8 °F 30.00 in Calm     95% 0 in meteobridge W/m2
05:04 67.3 °F 65.8 °F 30.00 in Calm     95% 0 in meteobridge W/m2
05:09 67.5 °F 66 °F 30.00 in Calm     95% 0 in meteobridge W/m2
05:14 67.5 °F 66 °F 30.00 in Calm     95% 0 in meteobridge W/m2
05:19 67.6 °F 66.2 °F 30.00 in Calm     95% 0 in meteobridge W/m2
05:24 67.6 °F 66.2 °F 30.00 in Calm     95% 0 in meteobridge W/m2
05:29 67.6 °F 66.2 °F 29.99 in Calm     95% 0 in meteobridge W/m2
05:34 67.6 °F 66.2 °F 30.00 in Calm     95% 0 in meteobridge W/m2
05:39 67.5 °F 66 °F 30.00 in Calm     95% 0 in meteobridge W/m2
05:44 67.5 °F 66 °F 30.00 in Calm     95% 0 in meteobridge W/m2
05:49 67.5 °F 66 °F 30.00 in Calm     95% 0 in meteobridge W/m2
05:54 67.3 °F 65.8 °F 30.00 in Calm     95% 0 in meteobridge W/m2
05:59 67.3 °F 65.8 °F 30.00 in Calm     95% 0 in meteobridge W/m2
06:04 67.3 °F 65.8 °F 30.00 in Calm     95% 0 in meteobridge W/m2
06:09 67.3 °F 65.8 °F 30.00 in Calm     95% 0 in meteobridge W/m2
06:14 67.3 °F 65.8 °F 30.00 in Calm     95% 0 in meteobridge W/m2
06:19 67.1 °F 65.7 °F 30.00 in Calm     95% 0 in meteobridge W/m2
06:24 67.1 °F 65.7 °F 30.00 in Calm     95% 0 in meteobridge W/m2
06:29 67.1 °F 65.7 °F 30.00 in Calm     95% 0 in meteobridge W/m2
06:34 66.9 °F 65.5 °F 30.00 in Calm     95% 0 in meteobridge W/m2
06:39 66.9 °F 65.5 °F 30.00 in Calm     95% 0 in meteobridge W/m2
06:44 66.9 °F 65.5 °F 30.00 in Calm     95% 0 in meteobridge W/m2
06:49 66.9 °F 65.5 °F 30.00 in Calm     95% 0 in meteobridge W/m2
06:54 66.7 °F 65.3 °F 30.00 in Calm     95% 0 in meteobridge W/m2
06:59 66.7 °F 65.3 °F 30.01 in Calm     95% 0 in meteobridge W/m2
07:04 66.7 °F 65.3 °F 30.01 in Calm     95% 0 in meteobridge W/m2
07:09 66.6 °F 65.1 °F 30.01 in Calm     95% 0 in meteobridge W/m2
07:14 66.6 °F 65.1 °F 30.01 in Calm     95% 0 in meteobridge W/m2
07:19 66.4 °F 64.9 °F 30.01 in Calm     95% 0 in meteobridge W/m2
07:24 66.2 °F 64.8 °F 30.01 in Calm     95% 0 in meteobridge W/m2
07:29 66.2 °F 64.8 °F 30.01 in Calm     95% 0 in meteobridge W/m2
07:34 66.2 °F 64.8 °F 30.01 in Calm     95% 0 in meteobridge W/m2
07:39 66.2 °F 64.8 °F 30.01 in Calm     95% 0 in meteobridge W/m2
07:44 66.4 °F 64.9 °F 30.01 in Calm     95% 0 in meteobridge W/m2
07:49 66.4 °F 64.9 °F 30.01 in Calm     95% 0 in meteobridge W/m2
07:54 66.4 °F 64.9 °F 30.01 in Calm     95% 0 in meteobridge W/m2
07:59 66.4 °F 64.9 °F 30.01 in Calm     95% 0 in meteobridge W/m2
08:04 66.6 °F 65.1 °F 30.01 in Calm     95% 0 in meteobridge W/m2
08:09 66.7 °F 65.3 °F 30.01 in Calm     95% 0 in meteobridge W/m2
08:14 66.9 °F 65.5 °F 30.01 in Calm     95% 0 in meteobridge W/m2
08:19 67.1 °F 65.7 °F 30.01 in Calm     95% 0 in meteobridge W/m2
08:24 67.3 °F 65.8 °F 30.01 in Calm     95% 0 in meteobridge W/m2
08:29 67.5 °F 66 °F 30.01 in Calm     95% 0 in meteobridge W/m2
08:34 67.5 °F 66 °F 30.01 in Calm     95% 0 in meteobridge W/m2
08:39 67.6 °F 66.2 °F 30.01 in Calm     95% 0 in meteobridge W/m2
08:44 67.6 °F 66.2 °F 30.01 in Calm     95% 0 in meteobridge W/m2
08:49 67.8 °F 66.4 °F 30.01 in Calm     95% 0 in meteobridge W/m2
08:54 68.2 °F 66.7 °F 30.01 in Calm     95% 0 in meteobridge W/m2
08:59 68.2 °F 66.7 °F 30.01 in Calm     95% 0 in meteobridge W/m2
09:04 68.4 °F 66.9 °F 30.01 in Calm     95% 0 in meteobridge W/m2
09:09 68.5 °F 67.1 °F 30.01 in Calm     95% 0 in meteobridge W/m2
09:14 68.7 °F 67.3 °F 30.01 in Calm     95% 0 in meteobridge W/m2
09:19 69.1 °F 67.6 °F 30.01 in Calm     95% 0 in meteobridge W/m2
09:24 69.3 °F 67.8 °F 30.01 in Calm     95% 0 in meteobridge W/m2
09:29 69.4 °F 68 °F 30.01 in Calm     95% 0 in meteobridge W/m2
09:34 69.8 °F 68.4 °F 30.01 in Calm     95% 0 in meteobridge W/m2
09:39 70 °F 68.5 °F 30.01 in Calm     95% 0 in meteobridge W/m2
09:44 70.3 °F 68.9 °F 30.01 in Calm     95% 0 in meteobridge W/m2
09:49 70.7 °F 69.3 °F 30.01 in Calm     95% 0 in meteobridge W/m2
09:54 71.1 °F 69.6 °F 30.01 in Calm     95% 0 in meteobridge W/m2
09:59 71.2 °F 69.8 °F 30.01 in Calm     95% 0 in meteobridge W/m2
10:04 71.8 °F 70.3 °F 30.01 in Calm     95% 0 in meteobridge W/m2
10:09 72.1 °F 70.7 °F 30.01 in Calm     95% 0 in meteobridge W/m2
10:14 72.5 °F 71.1 °F 30.01 in Calm     95% 0 in meteobridge W/m2
10:19 72.9 °F 71.4 °F 30.01 in Calm     95% 0 in meteobridge W/m2
10:24 73 °F 71.6 °F 30.01 in Calm     95% 0 in meteobridge W/m2
10:29 73.2 °F 71.8 °F 30.01 in Calm     95% 0 in meteobridge W/m2
10:34 73.6 °F 72.1 °F 30.01 in Calm     95% 0 in meteobridge W/m2
10:39 73.8 °F 72.3 °F 30.01 in Calm     95% 0 in meteobridge W/m2
10:44 73.9 °F 72.5 °F 30.01 in Calm     95% 0 in meteobridge W/m2
10:49 74.1 °F 72.7 °F 30.01 in Calm     95% 0 in meteobridge W/m2
10:54 74.3 °F 72.9 °F 30.01 in Calm     95% 0 in meteobridge W/m2
10:59 74.7 °F 73.2 °F 30.01 in Calm     95% 0 in meteobridge W/m2
11:04 75 °F 73.4 °F 30.01 in Calm     95% 0 in meteobridge W/m2
11:09 74.8 °F 73.2 °F 30.01 in Calm     95% 0 in meteobridge W/m2
11:14 74.8 °F 73.2 °F 30.01 in Calm     95% 0 in meteobridge W/m2
11:19 74.8 °F 73.2 °F 30.01 in Calm     95% 0 in meteobridge W/m2
11:24 75 °F 73.4 °F 30.01 in Calm     95% 0 in meteobridge W/m2
11:29 75.2 °F 73.6 °F 30.01 in Calm     95% 0 in meteobridge W/m2
11:34 75.7 °F 74.1 °F 30.01 in Calm     95% 0 in meteobridge W/m2
11:39 76.1 °F 74.5 °F 30.01 in Calm     95% 0 in meteobridge W/m2
11:44 76.3 °F 74.5 °F 30.01 in Calm     94% 0 in meteobridge W/m2
11:49 76.3 °F 74.5 °F 30.01 in Calm     94% 0 in meteobridge W/m2
11:54 76.8 °F 75 °F 30.00 in Calm     94% 0 in meteobridge W/m2
11:59 76.6 °F 74.5 °F 30.00 in Calm     93% 0 in meteobridge W/m2
12:04 76.6 °F 74.1 °F 30.01 in Calm     92% 0 in meteobridge W/m2
12:09 76.8 °F 73.6 °F 30.00 in Calm     90% 0 in meteobridge W/m2
12:14 77.5 °F 74.7 °F 30.00 in Calm     91% 0 in meteobridge W/m2
12:19 77.7 °F 74.3 °F 30.00 in Calm     89% 0 in meteobridge W/m2
12:24 78.6 °F 74.8 °F 29.99 in Calm     88% 0 in meteobridge W/m2
12:29 79.2 °F 74.7 °F 29.99 in Calm     86% 0 in meteobridge W/m2
12:34 79.5 °F 73.9 °F 29.99 in Calm     83% 0 in meteobridge W/m2
12:39 80.1 °F 74.1 °F 29.99 in Calm     82% 0 in meteobridge W/m2
12:44 80.4 °F 73.2 °F 29.99 in Calm     79% 0 in meteobridge W/m2
12:49 81.1 °F 75.2 °F 29.99 in Calm     82% 0 in meteobridge W/m2
12:54 81.3 °F 73.4 °F 29.98 in Calm     77% 0 in meteobridge W/m2
12:59 81.7 °F 73.8 °F 29.98 in Calm     77% 0 in meteobridge W/m2
13:04 82 °F 74.1 °F 29.98 in East 2 mph 2 mph 77% 0 in meteobridge W/m2
13:09 82 °F 73.8 °F 29.98 in ENE 0.9 mph 1 mph 76% 0 in meteobridge W/m2
13:14 82.6 °F 73 °F 29.98 in Calm   1 mph 73% 0 in meteobridge W/m2
13:19 82.9 °F 73 °F 29.98 in Calm   2 mph 72% 0 in meteobridge W/m2
13:24 83.7 °F 73.2 °F 29.98 in Calm   2 mph 71% 0 in meteobridge W/m2
13:29 83.7 °F 72.3 °F 29.97 in Calm   2 mph 69% 0 in meteobridge W/m2
13:34 83.8 °F 72.5 °F 29.97 in ENE 0.9 mph 3 mph 69% 0 in meteobridge W/m2
13:39 84.2 °F 72.5 °F 29.97 in Calm     68% 0 in meteobridge W/m2
13:44 84.6 °F 73.2 °F 29.96 in Calm   1 mph 69% 0 in meteobridge W/m2
13:49 84.6 °F 73.8 °F 29.96 in Calm     70% 0 in meteobridge W/m2
13:54 84.6 °F 72.3 °F 29.96 in Calm   1 mph 67% 0 in meteobridge W/m2
13:59 84.4 °F 72.7 °F 29.96 in Calm     68% 0 in meteobridge W/m2
14:04 84.2 °F 73.4 °F 29.96 in Calm     70% 0 in meteobridge W/m2
14:09 83.8 °F 74.7 °F 29.96 in Calm     74% 0 in meteobridge W/m2
14:14 83.8 °F 73.4 °F 29.96 in Calm   1 mph 71% 0 in meteobridge W/m2
14:19 83.7 °F 73.6 °F 29.95 in Calm     72% 0 in meteobridge W/m2
14:24 83.5 °F 73.6 °F 29.95 in Calm     72% 0 in meteobridge W/m2
14:29 83.5 °F 74.7 °F 29.94 in Calm     75% 0 in meteobridge W/m2
14:34 83.3 °F 75 °F 29.94 in Calm     76% 0 in meteobridge W/m2
14:39 83.1 °F 75.2 °F 29.94 in NNW 2.9 mph 4 mph 77% 0 in meteobridge W/m2
14:44 83.1 °F 74.8 °F 29.94 in NNW 2.9 mph 3 mph 76% 0 in meteobridge W/m2
14:49 83.5 °F 75.6 °F 29.94 in Calm   2 mph 77% 0 in meteobridge W/m2
14:54 83.7 °F 74.1 °F 29.94 in Calm   1 mph 73% 0 in meteobridge W/m2
14:59 83.7 °F 75.2 °F 29.94 in Calm     76% 0 in meteobridge W/m2
15:04 83.5 °F 74.3 °F 29.94 in Calm     74% 0 in meteobridge W/m2
15:09 82.9 °F 73.8 °F 29.94 in Calm     74% 0 in meteobridge W/m2
15:14 82.8 °F 75.2 °F 29.93 in Calm     78% 0 in meteobridge W/m2
15:19 82.6 °F 75.7 °F 29.93 in Calm     80% 0 in meteobridge W/m2
15:24 82.4 °F 76.3 °F 29.93 in Calm     82% 0 in meteobridge W/m2
15:29 82.2 °F 75.7 °F 29.93 in Calm     81% 0 in meteobridge W/m2
15:34 81.9 °F 74.7 °F 29.93 in Calm     79% 0 in meteobridge W/m2
15:39 81.7 °F 74.8 °F 29.92 in Calm     80% 0 in meteobridge W/m2
15:44 81.5 °F 74.3 °F 29.92 in Calm     79% 0 in meteobridge W/m2
15:49 81.7 °F 74.8 °F 29.92 in Calm   1 mph 80% 0 in meteobridge W/m2
15:54 81.9 °F 75 °F 29.91 in Calm     80% 0 in meteobridge W/m2
15:59 81.9 °F 74.3 °F 29.91 in Calm     78% 0 in meteobridge W/m2
16:04 81.9 °F 73.9 °F 29.91 in Calm     77% 0 in meteobridge W/m2
16:09 81.9 °F 74.3 °F 29.91 in Calm     78% 0 in meteobridge W/m2
16:14 82 °F 74.8 °F 29.91 in Calm     79% 0 in meteobridge W/m2
16:19 82 °F 75.2 °F 29.90 in Calm     80% 0 in meteobridge W/m2
16:24 81.9 °F 75.7 °F 29.90 in Calm     82% 0 in meteobridge W/m2
16:29 81.9 °F 75.7 °F 29.90 in Calm   1 mph 82% 0 in meteobridge W/m2
16:34 81.9 °F 75.7 °F 29.90 in Calm     82% 0 in meteobridge W/m2
16:39 81.9 °F 73.9 °F 29.90 in Calm     77% 0 in meteobridge W/m2
16:44 81.9 °F 73.6 °F 29.90 in Calm     76% 0 in meteobridge W/m2
16:49 81.9 °F 74.7 °F 29.90 in Calm     79% 0 in meteobridge W/m2
16:54 81.9 °F 74.3 °F 29.90 in Calm     78% 0 in meteobridge W/m2
16:59 82 °F 75.6 °F 29.90 in Calm     81% 0 in meteobridge W/m2
17:04 81.9 °F 75 °F 29.90 in Calm     80% 0 in meteobridge W/m2
17:09 81.9 °F 75.4 °F 29.90 in Calm     81% 0 in meteobridge W/m2
17:14 81.7 °F 74.5 °F 29.89 in Calm     79% 0 in meteobridge W/m2
17:19 81.7 °F 75.2 °F 29.89 in Calm     81% 0 in meteobridge W/m2
17:24 81.9 °F 75.7 °F 29.89 in Calm     82% 0 in meteobridge W/m2
17:29 81.9 °F 73.9 °F 29.89 in Calm     77% 0 in meteobridge W/m2
17:34 82 °F 73.8 °F 29.89 in Calm   1 mph 76% 0 in meteobridge W/m2
17:39 82.4 °F 74.8 °F 29.89 in Calm     78% 0 in meteobridge W/m2
17:44 82.6 °F 75.4 °F 29.89 in Calm   1 mph 79% 0 in meteobridge W/m2
17:49 82.9 °F 76.1 °F 29.88 in Calm     80% 0 in meteobridge W/m2
17:54 82.6 °F 75.4 °F 29.88 in Calm     79% 0 in meteobridge W/m2
17:59 82.4 °F 74.5 °F 29.88 in Calm     77% 0 in meteobridge W/m2
18:04 82.2 °F 73.6 °F 29.88 in Calm     75% 0 in meteobridge W/m2
18:09 82.2 °F 73.6 °F 29.88 in Calm     75% 0 in meteobridge W/m2
18:14 82.2 °F 73.6 °F 29.88 in Calm     75% 0 in meteobridge W/m2
18:19 82 °F 73.8 °F 29.88 in Calm     76% 0 in meteobridge W/m2
18:24 82 °F 74.8 °F 29.88 in Calm     79% 0 in meteobridge W/m2
18:29 81.7 °F 74.5 °F 29.88 in Calm     79% 0 in meteobridge W/m2
18:34 81.1 °F 74.7 °F 29.88 in Calm     81% 0 in meteobridge W/m2
18:39 80.8 °F 75.2 °F 29.88 in Calm     83% 0 in meteobridge W/m2
18:44 80.2 °F 75 °F 29.88 in Calm     84% 0 in meteobridge W/m2
18:49 79.5 °F 74.3 °F 29.88 in Calm     84% 0 in meteobridge W/m2
18:54 79.3 °F 74.5 °F 29.88 in Calm     85% 0 in meteobridge W/m2
18:59 79.2 °F 74.7 °F 29.88 in Calm     86% 0 in meteobridge W/m2
19:04 79 °F 74.5 °F 29.88 in Calm     86% 0 in meteobridge W/m2
19:09 78.8 °F 74.3 °F 29.88 in Calm     86% 0 in meteobridge W/m2
19:14 78.6 °F 74.5 °F 29.88 in Calm     87% 0 in meteobridge W/m2
19:19 78.4 °F 73.9 °F 29.89 in Calm     86% 0 in meteobridge W/m2
19:24 78.3 °F 73.8 °F 29.89 in Calm     86% 0 in meteobridge W/m2
19:29 78.1 °F 73.9 °F 29.88 in Calm     87% 0 in meteobridge W/m2
19:34 78.1 °F 74.3 °F 29.88 in Calm     88% 0 in meteobridge W/m2
19:39 77.7 °F 73.9 °F 29.88 in Calm     88% 0 in meteobridge W/m2
19:44 77.5 °F 74.1 °F 29.88 in Calm     89% 0 in meteobridge W/m2
19:49 77.4 °F 73.9 °F 29.89 in Calm     89% 0 in meteobridge W/m2
19:54 77.2 °F 73.8 °F 29.89 in Calm     89% 0 in meteobridge W/m2
19:59 77 °F 73.6 °F 29.89 in Calm     89% 0 in meteobridge W/m2
20:04 76.8 °F 73.6 °F 29.89 in Calm     90% 0 in meteobridge W/m2
20:09 76.5 °F 73.2 °F 29.89 in Calm     90% 0 in meteobridge W/m2
20:14 76.3 °F 73 °F 29.89 in Calm     90% 0 in meteobridge W/m2
20:19 75.9 °F 72.9 °F 29.90 in Calm     90% 0 in meteobridge W/m2
20:24 75.9 °F 73 °F 29.90 in Calm     91% 0 in meteobridge W/m2
20:29 75.7 °F 72.9 °F 29.90 in Calm     91% 0 in meteobridge W/m2
20:34 75.6 °F 72.7 °F 29.90 in Calm     91% 0 in meteobridge W/m2
20:39 75.2 °F 72.3 °F 29.90 in Calm     91% 0 in meteobridge W/m2
20:44 75 °F 72.1 °F 29.90 in Calm     91% 0 in meteobridge W/m2
20:49 74.8 °F 72 °F 29.90 in Calm     91% 0 in meteobridge W/m2
20:54 74.7 °F 71.8 °F 29.90 in Calm     91% 0 in meteobridge W/m2
20:59 74.5 °F 71.6 °F 29.91 in Calm     91% 0 in meteobridge W/m2
21:04 74.5 °F 72 °F 29.90 in Calm     92% 0 in meteobridge W/m2
21:09 74.3 °F 71.8 °F 29.90 in Calm     92% 0 in meteobridge W/m2
21:14 74.1 °F 71.6 °F 29.90 in Calm     92% 0 in meteobridge W/m2
21:19 73.9 °F 71.4 °F 29.91 in Calm     92% 0 in meteobridge W/m2
21:24 73.8 °F 71.2 °F 29.91 in Calm     92% 0 in meteobridge W/m2
21:29 73.8 °F 71.2 °F 29.91 in Calm     92% 0 in meteobridge W/m2
21:34 73.6 °F 71.1 °F 29.91 in Calm     92% 0 in meteobridge W/m2
21:39 73.6 °F 71.1 °F 29.91 in Calm     92% 0 in meteobridge W/m2
21:44 73.6 °F 71.1 °F 29.91 in Calm     92% 0 in meteobridge W/m2
21:49 73.4 °F 70.9 °F 29.92 in Calm     92% 0 in meteobridge W/m2
21:54 73.2 °F 70.7 °F 29.92 in Calm     92% 0 in meteobridge W/m2
21:59 73.2 °F 71.1 °F 29.92 in Calm     93% 0 in meteobridge W/m2
22:04 73 °F 70.9 °F 29.91 in Calm     93% 0 in meteobridge W/m2
22:09 73 °F 70.9 °F 29.91 in Calm     93% 0 in meteobridge W/m2
22:14 72.9 °F 70.7 °F 29.92 in Calm     93% 0 in meteobridge W/m2
22:19 72.9 °F 70.7 °F 29.92 in Calm     93% 0 in meteobridge W/m2
22:24 72.9 °F 70.7 °F 29.92 in Calm     93% 0 in meteobridge W/m2
22:29 72.7 °F 70.5 °F 29.92 in Calm     93% 0 in meteobridge W/m2
22:34 72.7 °F 70.5 °F 29.92 in Calm     93% 0 in meteobridge W/m2
22:39 72.7 °F 70.5 °F 29.92 in Calm     93% 0 in meteobridge W/m2
22:44 72.7 °F 70.5 °F 29.92 in Calm     93% 0 in meteobridge W/m2
22:49 72.3 °F 70.2 °F 29.92 in Calm     93% 0 in meteobridge W/m2
22:54 72.3 °F 70.2 °F 29.92 in Calm     93% 0 in meteobridge W/m2
22:59 72.3 °F 70.2 °F 29.92 in Calm     93% 0 in meteobridge W/m2
23:04 72.1 °F 70 °F 29.93 in Calm     93% 0 in meteobridge W/m2
23:09 72.1 °F 70 °F 29.93 in Calm     93% 0 in meteobridge W/m2
23:14 72.1 °F 70 °F 29.93 in Calm     93% 0 in meteobridge W/m2
23:19 72 °F 69.8 °F 29.93 in Calm     93% 0 in meteobridge W/m2
23:24 72 °F 69.8 °F 29.93 in Calm     93% 0 in meteobridge W/m2
23:29 71.8 °F 69.6 °F 29.93 in Calm     93% 0 in meteobridge W/m2
23:34 71.8 °F 69.6 °F 29.93 in Calm     93% 0 in meteobridge W/m2
23:39 71.8 °F 69.6 °F 29.93 in Calm     93% 0 in meteobridge W/m2
23:44 71.6 °F 69.4 °F 29.93 in Calm     93% 0 in meteobridge W/m2
23:49 71.4 °F 69.3 °F 29.93 in Calm     93% 0 in meteobridge W/m2
23:54 71.4 °F 69.3 °F 29.93 in Calm     93% 0 in meteobridge W/m2
23:59 71.4 °F 69.3 °F 29.93 in Calm     93% 0 in meteobridge W/m2
EllijayWeather
Compliments of Weather Underground - 2.5 mb